Clover, Virginia
Current Conditions -  °F | °C
As of 8:35 PM on Monday 20 Oct 2014 (Local Time) from KW78 Reporting Station
Clear Clear  
Wind Chill: 56°   Ceiling: Unl
Heat Index: 56°   Visibility: 10mi
Dew Point: 48°   Wind: 0mph
Humidity: 74%   Direction: NA
Pressure: 29.98"   Gusts: NA
Location:  36.83°N, 78.73°W
Report Text: KW78 210035Z AUTO 00000KT 10SM CLR 14/09 A2998 RMK AO1 T01350090
Loading
Personal Weather Stations






























Interactive Weather Map
Tropical Storm Tracking
New forecast layout! Learn more

10-Day Weather Forecast

Advertisements
Track Severe Weather on mobile